Terminal Aerodrome Forecast
Issued by NWS

Home | Current Version | Previous Version | Text Only | Print | Product List | Glossary Off
Versions: 1 2 3 4 5 6 7 8 9 10 11 12 13 14 15 16 17 18 19 20 21 22

000
FTUS43 KLSX 221139
TAFSUS
TAF
KSUS 221139Z 2212/2312 33013G22KT 6SM -SHRA VCTS BKN008 OVC025CB
     FM221300 22009KT P6SM -SHRA OVC008
     FM221600 31010KT P6SM -SHRA OVC015
     FM221900 32010KT P6SM VCSH OVC020
     FM222100 32009KT P6SM BKN035=

USA.gov is the U.S. government's official web portal to all federal, state and local government web resources and services.